Time;durP1;ratioP1;P1;durP2;ratioP2;P2;SDS_P1;SDS_P2;PMS_P1;PMS_P2;Temp;Humidity;BMP_temperature;BMP_pressure;BME280_temperature;BME280_humidity;BME280_pressure;Samples;Min_cycle;Max_cycle;Signal;HPM_P1;HPM_P2
2021/05/24 00:02:03;;;;;;;2.27;2.07;;;7.40;95.70;;;;;;5053684;28;20268;-60
2021/05/24 00:04:29;;;;;;;5.03;2.47;;;7.40;95.70;;;;;;5052618;28;20426;-58
2021/05/24 00:06:55;;;;;;;3.93;2.07;;;7.40;95.50;;;;;;5067864;28;20966;-60
2021/05/24 00:09:20;;;;;;;4.80;2.60;;;7.30;95.40;;;;;;5067824;28;20659;-60
2021/05/24 00:11:50;;;;;;;3.23;2.20;;;7.30;95.40;;;;;;5050464;28;20177;-60
2021/05/24 00:14:19;;;;;;;5.43;2.30;;;7.20;95.60;;;;;;5069269;28;20242;-60
2021/05/24 00:16:45;;;;;;;2.77;2.27;;;7.20;95.80;;;;;;5063575;28;20429;-60
2021/05/24 00:19:10;;;;;;;2.70;1.90;;;7.20;96.00;;;;;;5059545;28;20776;-59
2021/05/24 00:21:36;;;;;;;7.77;2.43;;;7.20;96.10;;;;;;5070429;28;20170;-60
2021/05/24 00:24:02;;;;;;;2.53;1.90;;;7.20;96.40;;;;;;5071445;28;20242;-59
2021/05/24 00:26:27;;;;;;;3.53;2.70;;;7.20;96.40;;;;;;5061781;28;20174;-60
2021/05/24 00:28:53;;;;;;;2.50;2.30;;;7.20;96.40;;;;;;5055232;28;20195;-61
2021/05/24 00:31:19;;;;;;;2.30;2.10;;;7.20;96.20;;;;;;5041902;28;20273;-60
2021/05/24 00:33:45;;;;;;;3.57;2.30;;;7.20;96.20;;;;;;5071222;28;20667;-60
2021/05/24 00:36:10;;;;;;;4.00;2.10;;;7.10;96.00;;;;;;5055573;28;20171;-60
2021/05/24 00:38:36;;;;;;;4.10;2.10;;;7.00;96.10;;;;;;5052571;28;20199;-60
2021/05/24 00:41:02;;;;;;;6.03;2.10;;;7.00;96.40;;;;;;5064560;28;20190;-60
2021/05/24 00:43:27;;;;;;;3.20;2.20;;;7.00;96.50;;;;;;5058929;28;20231;-59
2021/05/24 00:45:53;;;;;;;3.13;1.90;;;7.00;96.50;;;;;;5067012;28;20205;-59
2021/05/24 00:48:19;;;;;;;2.50;1.73;;;7.00;97.10;;;;;;5058566;28;20655;-60
2021/05/24 00:50:45;;;;;;;1.97;1.87;;;6.90;97.00;;;;;;5034219;28;20310;-59
2021/05/24 00:53:10;;;;;;;1.97;1.80;;;6.90;97.20;;;;;;5034169;28;20390;-60
2021/05/24 00:55:39;;;;;;;3.77;1.97;;;6.90;97.30;;;;;;5058772;28;20178;-60
2021/05/24 00:58:05;;;;;;;2.37;2.00;;;6.90;97.30;;;;;;5068097;28;20177;-59
2021/05/24 01:00:43;;;;;;;3.43;2.07;;;6.90;97.30;;;;;;5056492;28;20429;-60
2021/05/24 01:03:10;;;;;;;2.27;2.07;;;6.90;97.40;;;;;;5033614;28;20984;-60
2021/05/24 01:05:38;;;;;;;5.57;2.10;;;6.90;97.40;;;;;;5064838;28;20412;-60
2021/05/24 01:08:05;;;;;;;2.40;2.00;;;6.90;97.30;;;;;;5064404;28;20420;-61
2021/05/24 01:10:31;;;;;;;1.97;1.83;;;6.80;97.40;;;;;;5070977;28;20798;-60
2021/05/24 01:13:01;;;;;;;2.20;1.97;;;6.80;97.40;;;;;;5070353;28;20413;-60
2021/05/24 01:15:28;;;;;;;2.47;2.27;;;6.80;97.50;;;;;;5071407;28;20429;-61
2021/05/24 01:17:55;;;;;;;2.53;2.33;;;6.80;97.60;;;;;;5069565;28;20436;-60
2021/05/24 01:20:21;;;;;;;9.43;3.30;;;6.70;97.50;;;;;;5073122;28;20452;-59
2021/05/24 01:23:07;;;;;;;2.23;2.03;;;6.70;97.70;;;;;;5072127;28;20449;-61
2021/05/24 01:25:36;;;;;;;2.60;2.40;;;6.70;97.80;;;;;;5064238;28;20432;-61
2021/05/24 01:28:04;;;;;;;1.80;1.70;;;6.60;97.90;;;;;;5076227;28;20899;-60
2021/05/24 01:30:31;;;;;;;2.67;2.10;;;6.60;98.00;;;;;;5068182;28;20410;-60
2021/05/24 01:32:57;;;;;;;3.07;2.53;;;6.60;98.00;;;;;;5060063;28;20424;-60
2021/05/24 01:35:23;;;;;;;4.00;2.30;;;6.60;98.10;;;;;;5043010;28;20801;-59
2021/05/24 01:37:49;;;;;;;4.90;2.67;;;6.50;98.00;;;;;;5064904;28;20425;-60
2021/05/24 01:40:15;;;;;;;4.03;2.10;;;6.50;98.30;;;;;;5044793;28;20202;-60
2021/05/24 01:42:41;;;;;;;2.40;2.17;;;6.50;98.40;;;;;;5066829;28;20190;-61
2021/05/24 01:45:08;;;;;;;4.20;2.27;;;6.50;98.30;;;;;;5061280;28;20419;-60
2021/05/24 01:47:34;;;;;;;3.27;1.87;;;6.50;98.40;;;;;;5063115;28;20486;-60
2021/05/24 01:49:59;;;;;;;2.20;2.00;;;6.50;98.60;;;;;;5062430;28;20456;-60
2021/05/24 01:52:25;;;;;;;2.10;2.00;;;6.50;98.60;;;;;;5057536;28;20244;-59
2021/05/24 01:54:50;;;;;;;3.10;2.20;;;6.40;98.60;;;;;;5067787;28;20563;-60
2021/05/24 01:57:16;;;;;;;7.80;2.37;;;6.40;98.60;;;;;;5058665;28;20421;-60
2021/05/24 01:59:42;;;;;;;4.10;2.77;;;6.40;98.70;;;;;;5068377;28;20198;-60
2021/05/24 02:02:08;;;;;;;3.83;2.87;;;6.40;98.70;;;;;;5047679;28;20190;-59
2021/05/24 02:04:36;;;;;;;4.93;2.17;;;6.40;98.70;;;;;;5065627;28;20162;-60
2021/05/24 02:07:02;;;;;;;2.97;1.90;;;6.40;98.80;;;;;;5063476;28;20427;-60
2021/05/24 02:09:29;;;;;;;2.43;2.23;;;6.30;98.50;;;;;;5062936;28;20503;-60
2021/05/24 02:11:55;;;;;;;2.30;2.10;;;6.30;98.70;;;;;;5066512;28;20804;-60
2021/05/24 02:14:21;;;;;;;3.40;2.40;;;6.30;98.80;;;;;;5065474;28;20416;-60
2021/05/24 02:16:49;;;;;;;4.07;2.40;;;6.30;99.00;;;;;;5063847;28;20182;-60
2021/05/24 02:19:16;;;;;;;2.13;2.00;;;6.30;99.10;;;;;;5065711;28;20993;-61
2021/05/24 02:21:42;;;;;;;2.03;1.80;;;6.30;99.20;;;;;;5065203;28;20404;-60
2021/05/24 02:24:09;;;;;;;3.63;2.10;;;6.30;99.20;;;;;;5066415;28;20415;-60
2021/05/24 02:26:36;;;;;;;2.17;2.07;;;6.20;99.40;;;;;;5064310;28;20187;-60
2021/05/24 02:29:04;;;;;;;2.17;1.97;;;6.30;99.20;;;;;;5066160;28;20444;-60
2021/05/24 02:31:29;;;;;;;2.40;2.00;;;6.30;99.20;;;;;;5047786;28;20405;-60
2021/05/24 02:33:55;;;;;;;4.90;1.90;;;6.20;99.00;;;;;;5064051;28;20405;-60
2021/05/24 02:36:23;;;;;;;4.53;2.47;;;6.20;99.20;;;;;;5062238;28;20185;-59
2021/05/24 02:38:49;;;;;;;2.30;2.10;;;6.10;99.50;;;;;;5066902;28;20197;-60
2021/05/24 02:41:15;;;;;;;2.20;2.00;;;6.10;99.50;;;;;;5061740;28;20441;-60
2021/05/24 02:43:41;;;;;;;3.83;2.10;;;6.10;99.50;;;;;;5057906;28;20194;-59
2021/05/24 02:46:06;;;;;;;3.00;2.23;;;6.10;99.40;;;;;;5064107;28;20178;-60
2021/05/24 02:48:32;;;;;;;2.50;2.30;;;6.10;99.40;;;;;;5066202;28;20448;-58
2021/05/24 02:50:58;;;;;;;3.70;2.07;;;6.10;99.60;;;;;;5046273;28;20170;-60
2021/05/24 02:53:24;;;;;;;2.70;2.50;;;6.10;99.70;;;;;;5066751;28;20416;-59
2021/05/24 02:55:50;;;;;;;2.40;2.20;;;6.10;99.80;;;;;;5058643;28;20439;-59
2021/05/24 02:58:15;;;;;;;4.20;2.33;;;6.10;99.80;;;;;;5066058;28;20591;-59
2021/05/24 03:00:41;;;;;;;2.70;2.33;;;6.10;99.90;;;;;;5060595;28;20174;-60
2021/05/24 03:03:08;;;;;;;3.53;2.77;;;6.10;99.90;;;;;;5045352;28;20205;-60
2021/05/24 03:05:34;;;;;;;2.87;2.13;;;6.10;99.90;;;;;;5066943;28;20639;-60
2021/05/24 03:08:00;;;;;;;10.10;1.93;;;6.00;99.90;;;;;;5047275;28;20428;-60
2021/05/24 03:10:26;;;;;;;1.90;1.80;;;6.00;99.80;;;;;;5064751;28;20252;-59
2021/05/24 03:12:53;;;;;;;4.47;2.13;;;6.00;99.90;;;;;;5064371;28;20416;-60
2021/05/24 03:15:20;;;;;;;2.43;2.20;;;6.00;99.90;;;;;;5042864;28;20429;-59
2021/05/24 03:17:46;;;;;;;3.40;2.20;;;6.00;99.90;;;;;;5065144;28;20424;-60
2021/05/24 03:20:13;;;;;;;3.00;1.73;;;6.00;99.90;;;;;;5059612;28;20535;-59
2021/05/24 03:22:39;;;;;;;2.13;2.03;;;6.00;99.90;;;;;;5065772;28;20447;-60
2021/05/24 03:25:06;;;;;;;2.70;1.67;;;6.00;99.90;;;;;;5061199;28;20428;-61
2021/05/24 03:27:32;;;;;;;2.77;2.10;;;5.90;99.90;;;;;;5063502;28;20413;-60
2021/05/24 03:29:58;;;;;;;3.03;2.40;;;5.90;99.90;;;;;;5067958;28;20451;-61
2021/05/24 03:32:24;;;;;;;3.10;2.07;;;6.00;99.90;;;;;;5067151;28;20437;-58
2021/05/24 03:34:49;;;;;;;2.00;1.83;;;5.90;99.90;;;;;;5064061;28;20175;-60
2021/05/24 03:37:15;;;;;;;4.30;2.50;;;5.90;99.90;;;;;;5062218;28;20187;-59
2021/05/24 03:39:41;;;;;;;2.90;2.33;;;5.90;99.90;;;;;;5065187;28;20191;-60
2021/05/24 03:42:06;;;;;;;3.77;2.30;;;5.90;99.90;;;;;;5049536;28;20196;-60
2021/05/24 03:44:32;;;;;;;2.50;2.30;;;5.90;99.90;;;;;;5061240;28;20254;-60
2021/05/24 03:46:58;;;;;;;1.83;1.73;;;5.90;99.90;;;;;;5048250;28;20549;-60
2021/05/24 03:49:23;;;;;;;5.13;2.20;;;5.90;99.90;;;;;;5061938;28;20260;-60
2021/05/24 03:51:49;;;;;;;2.40;2.20;;;5.90;99.90;;;;;;5040301;28;20179;-59
2021/05/24 03:54:15;;;;;;;2.67;2.40;;;5.80;99.90;;;;;;5068178;28;20253;-60
2021/05/24 03:56:41;;;;;;;2.10;2.00;;;5.80;99.90;;;;;;5064402;28;20559;-60
2021/05/24 03:59:07;;;;;;;4.83;2.10;;;5.80;99.90;;;;;;5066722;28;20701;-60
2021/05/24 04:01:36;;;;;;;4.00;2.30;;;5.80;99.90;;;;;;5065899;28;20177;-59
2021/05/24 04:04:03;;;;;;;3.20;2.20;;;5.80;99.90;;;;;;5068391;28;20466;-60
2021/05/24 04:06:29;;;;;;;2.00;1.90;;;5.80;99.90;;;;;;5064591;28;20424;-59
2021/05/24 04:08:55;;;;;;;5.50;2.33;;;5.80;99.90;;;;;;5064093;28;21013;-59
2021/05/24 04:11:20;;;;;;;2.50;2.30;;;5.80;99.90;;;;;;5069553;28;20186;-59
2021/05/24 04:13:50;;;;;;;2.60;2.10;;;5.80;99.90;;;;;;5066714;28;20451;-59
2021/05/24 04:16:16;;;;;;;2.30;2.10;;;5.80;99.90;;;;;;5051552;28;20232;-60
2021/05/24 04:18:46;;;;;;;2.20;2.03;;;5.80;99.90;;;;;;5066793;28;20441;-60
2021/05/24 04:21:13;;;;;;;3.80;2.30;;;5.90;99.90;;;;;;5067702;28;20177;-58
2021/05/24 04:23:38;;;;;;;2.50;2.30;;;5.80;99.90;;;;;;5067380;28;20548;-59
2021/05/24 04:26:04;;;;;;;2.10;2.00;;;5.90;99.90;;;;;;5061671;28;21041;-60
2021/05/24 04:28:30;;;;;;;2.60;2.40;;;5.90;99.90;;;;;;5069043;28;20199;-60
2021/05/24 04:30:56;;;;;;;2.20;2.10;;;5.90;99.90;;;;;;5064358;28;20505;-60
2021/05/24 04:33:21;;;;;;;2.30;2.10;;;5.90;99.90;;;;;;5069051;28;20599;-60
2021/05/24 04:35:47;;;;;;;2.60;1.93;;;5.90;99.90;;;;;;5046877;28;20240;-60
2021/05/24 04:38:12;;;;;;;2.40;2.17;;;5.90;99.90;;;;;;5051183;28;20194;-61
2021/05/24 04:40:38;;;;;;;2.50;2.30;;;5.90;99.90;;;;;;5051261;28;20171;-59
2021/05/24 04:43:04;;;;;;;3.40;2.13;;;5.90;99.90;;;;;;5051911;28;20209;-60
2021/05/24 04:45:30;;;;;;;5.30;2.70;;;5.90;99.90;;;;;;5065248;28;20179;-60
2021/05/24 04:47:55;;;;;;;3.70;2.00;;;5.90;99.90;;;;;;5062009;28;20240;-60
2021/05/24 04:50:21;;;;;;;2.53;2.33;;;5.90;99.90;;;;;;5051284;28;20291;-60
2021/05/24 04:52:47;;;;;;;2.53;2.30;;;5.90;99.90;;;;;;5042765;28;20417;-60
2021/05/24 04:55:13;;;;;;;2.97;2.67;;;6.00;99.90;;;;;;5046088;28;20726;-60
2021/05/24 04:57:39;;;;;;;2.87;2.20;;;6.00;99.90;;;;;;5067211;28;20662;-60
2021/05/24 05:00:08;;;;;;;3.00;2.03;;;6.00;99.90;;;;;;5066173;28;20509;-60
2021/05/24 05:02:35;;;;;;;5.37;2.93;;;6.10;99.90;;;;;;5053999;28;20461;-60
2021/05/24 05:05:00;;;;;;;2.80;2.30;;;6.10;99.90;;;;;;5059724;28;20807;-59
2021/05/24 05:07:27;;;;;;;6.00;2.50;;;6.10;99.90;;;;;;5070692;28;20975;-60
2021/05/24 05:09:54;;;;;;;3.23;2.77;;;6.10;99.90;;;;;;5053776;28;20199;-60
2021/05/24 05:12:20;;;;;;;4.20;2.30;;;6.20;99.90;;;;;;5063838;28;20634;-60
2021/05/24 05:14:46;;;;;;;2.37;2.03;;;6.20;99.90;;;;;;5058271;28;20499;-59
2021/05/24 05:17:11;;;;;;;2.30;2.10;;;6.20;99.90;;;;;;5044412;28;20841;-60
2021/05/24 05:19:37;;;;;;;3.53;1.97;;;6.20;99.90;;;;;;5046905;28;20198;-60
2021/05/24 05:22:03;;;;;;;2.03;1.93;;;6.30;99.90;;;;;;5041084;28;20301;-60
2021/05/24 05:24:28;;;;;;;2.60;2.40;;;6.30;99.90;;;;;;5059222;28;20179;-61
2021/05/24 05:26:54;;;;;;;3.23;2.30;;;6.30;99.90;;;;;;5069465;28;20292;-60
2021/05/24 05:29:20;;;;;;;3.20;2.73;;;6.40;99.90;;;;;;5052198;28;20195;-58
2021/05/24 05:31:45;;;;;;;2.17;1.97;;;6.40;99.90;;;;;;5034402;28;20282;-60
2021/05/24 05:34:11;;;;;;;2.30;2.10;;;6.40;99.90;;;;;;5052367;28;20297;-60
2021/05/24 05:36:37;;;;;;;2.80;2.47;;;6.50;99.90;;;;;;5062027;28;20270;-59
2021/05/24 05:39:05;;;;;;;3.63;2.60;;;6.50;99.90;;;;;;5054398;28;20223;-59
2021/05/24 05:41:30;;;;;;;2.90;2.50;;;6.60;99.90;;;;;;5045910;28;20425;-60
2021/05/24 05:43:56;;;;;;;2.60;2.20;;;6.70;99.90;;;;;;5054816;28;20479;-60
2021/05/24 05:46:22;;;;;;;4.47;2.60;;;6.70;99.90;;;;;;5050718;28;20214;-59
2021/05/24 05:48:48;;;;;;;3.00;2.70;;;6.80;99.90;;;;;;5034479;28;20497;-60
2021/05/24 05:51:13;;;;;;;3.03;2.73;;;6.80;99.90;;;;;;5053397;28;20445;-59
2021/05/24 05:53:39;;;;;;;4.60;2.70;;;6.80;99.90;;;;;;5057307;28;20198;-60
2021/05/24 05:56:05;;;;;;;5.57;2.60;;;6.90;99.80;;;;;;5057419;28;20563;-59
2021/05/24 05:58:31;;;;;;;4.60;2.43;;;6.90;99.90;;;;;;5056939;28;20198;-60
2021/05/24 06:01:01;;;;;;;2.90;2.23;;;7.00;99.60;;;;;;5052898;28;21041;-60
2021/05/24 06:03:27;;;;;;;2.40;2.20;;;7.00;99.60;;;;;;5038796;28;20198;-59
2021/05/24 06:05:52;;;;;;;2.37;2.00;;;7.10;99.80;;;;;;5033340;28;20987;-59
2021/05/24 06:08:18;;;;;;;2.50;2.30;;;7.20;99.90;;;;;;5055215;28;20178;-58
2021/05/24 06:10:43;;;;;;;2.20;2.00;;;7.30;99.50;;;;;;5053701;28;20187;-58
2021/05/24 06:13:11;;;;;;;1.90;1.80;;;7.40;99.20;;;;;;5057843;28;20663;-59
2021/05/24 06:15:37;;;;;;;3.23;1.83;;;7.40;99.10;;;;;;5050991;28;20644;-58
2021/05/24 06:18:03;;;;;;;2.33;1.93;;;7.50;99.10;;;;;;5057911;28;20436;-59
2021/05/24 06:20:28;;;;;;;2.27;2.07;;;7.60;98.70;;;;;;5060415;28;20226;-59
2021/05/24 06:22:54;;;;;;;3.80;2.30;;;7.60;98.90;;;;;;5058385;28;20289;-61
2021/05/24 06:25:20;;;;;;;2.63;2.43;;;7.60;99.40;;;;;;5055764;28;20179;-57
2021/05/24 06:27:45;;;;;;;2.60;2.40;;;7.60;99.40;;;;;;5063943;28;20194;-61
2021/05/24 06:30:12;;;;;;;9.20;2.47;;;7.60;99.60;;;;;;5066260;28;20195;-60
2021/05/24 06:32:38;;;;;;;3.13;2.37;;;7.60;99.00;;;;;;5060880;28;20194;-59
2021/05/24 06:35:05;;;;;;;2.57;2.37;;;7.60;99.50;;;;;;5046092;28;20428;-59
2021/05/24 06:37:30;;;;;;;4.13;2.20;;;7.70;99.90;;;;;;5054644;28;20441;-58
2021/05/24 06:39:56;;;;;;;3.17;2.73;;;7.70;99.80;;;;;;5054886;28;20460;-59
2021/05/24 06:42:23;;;;;;;6.50;2.90;;;7.70;99.80;;;;;;5057246;28;20287;-60
2021/05/24 06:44:50;;;;;;;2.87;2.67;;;7.80;99.80;;;;;;5055256;28;20277;-59
2021/05/24 06:47:15;;;;;;;4.80;2.47;;;7.80;99.60;;;;;;5057665;28;20460;-60
2021/05/24 06:49:41;;;;;;;2.60;2.40;;;7.80;99.80;;;;;;5056453;28;20468;-59
2021/05/24 06:52:07;;;;;;;2.33;2.17;;;7.80;99.50;;;;;;5055135;28;20546;-58
2021/05/24 06:54:33;;;;;;;4.73;2.43;;;7.90;99.90;;;;;;5055598;28;20800;-59
2021/05/24 06:57:03;;;;;;;3.80;2.20;;;7.90;99.40;;;;;;5055379;28;20441;-60
2021/05/24 06:59:29;;;;;;;2.40;2.20;;;8.00;99.30;;;;;;5044180;28;21469;-60
2021/05/24 07:01:54;;;;;;;3.43;2.33;;;8.00;99.50;;;;;;5056003;28;20438;-60
2021/05/24 07:04:20;;;;;;;2.53;1.80;;;8.00;99.40;;;;;;5044094;28;20760;-58
2021/05/24 07:06:46;;;;;;;2.13;1.60;;;8.10;99.50;;;;;;5055262;28;20179;-59
2021/05/24 07:09:11;;;;;;;4.20;2.00;;;8.10;99.20;;;;;;5037389;28;20194;-60
2021/05/24 07:11:37;;;;;;;3.50;2.17;;;8.10;98.30;;;;;;5061516;28;20650;-59
2021/05/24 07:14:03;;;;;;;2.00;1.90;;;8.10;98.90;;;;;;5057902;28;20182;-60
2021/05/24 07:16:29;;;;;;;3.17;2.10;;;8.20;99.10;;;;;;5055675;28;20182;-63
2021/05/24 07:18:54;;;;;;;3.23;2.03;;;8.30;99.60;;;;;;5054492;28;20493;-59
2021/05/24 07:21:20;;;;;;;5.03;2.40;;;8.30;99.50;;;;;;5039205;28;20179;-59
2021/05/24 07:23:46;;;;;;;2.57;2.10;;;8.40;99.50;;;;;;5053618;28;20257;-58
2021/05/24 07:26:11;;;;;;;2.90;2.57;;;8.50;99.40;;;;;;5033312;28;20647;-59
2021/05/24 07:28:37;;;;;;;1.83;1.73;;;8.60;99.20;;;;;;5038488;28;20194;-59
2021/05/24 07:31:03;;;;;;;5.90;1.97;;;8.60;99.20;;;;;;5055050;28;20204;-58
2021/05/24 07:33:28;;;;;;;6.17;2.20;;;8.70;99.30;;;;;;5063491;28;20253;-59
2021/05/24 07:35:55;;;;;;;2.00;1.90;;;8.70;99.30;;;;;;5048515;28;20178;-61
2021/05/24 07:38:21;;;;;;;2.60;1.90;;;8.70;99.10;;;;;;5061300;28;20174;-59
2021/05/24 07:40:46;;;;;;;2.00;1.80;;;8.70;98.60;;;;;;5058599;28;20438;-61
2021/05/24 07:43:14;;;;;;;2.20;2.00;;;8.70;98.50;;;;;;5061830;28;20264;-62
2021/05/24 07:45:40;;;;;;;2.03;1.80;;;8.80;98.80;;;;;;5038653;28;20174;-61
2021/05/24 07:48:06;;;;;;;2.13;2.00;;;8.80;98.70;;;;;;5056564;28;20768;-59
2021/05/24 07:50:32;;;;;;;5.33;2.23;;;8.80;98.40;;;;;;5062382;28;20227;-59
2021/05/24 07:52:58;;;;;;;2.23;2.07;;;8.90;98.60;;;;;;5061015;28;20943;-59
2021/05/24 07:55:24;;;;;;;2.10;1.90;;;8.90;97.70;;;;;;5061848;28;20206;-59
2021/05/24 07:57:49;;;;;;;1.97;1.83;;;9.00;97.70;;;;;;5054069;28;20183;-58
2021/05/24 08:00:16;;;;;;;4.20;2.50;;;9.00;97.50;;;;;;5056104;28;20210;-65
2021/05/24 08:02:43;;;;;;;2.30;2.03;;;9.00;97.50;;;;;;5056834;28;20456;-59
2021/05/24 08:05:13;;;;;;;5.93;2.57;;;9.10;97.50;;;;;;5038961;28;21129;-61
2021/05/24 08:07:40;;;;;;;2.80;2.57;;;9.20;98.00;;;;;;5059653;28;20501;-61
2021/05/24 08:10:09;;;;;;;2.40;2.20;;;9.20;97.50;;;;;;5041092;28;20437;-59
2021/05/24 08:12:37;;;;;;;2.73;2.13;;;9.30;97.10;;;;;;5055684;28;20884;-59
2021/05/24 08:15:32;;;;;;;1.67;1.57;;;9.30;97.10;;;;;;5060062;28;20434;-59
2021/05/24 08:18:00;;;;;;;3.53;2.07;;;9.40;96.30;;;;;;5063717;28;20421;-61
2021/05/24 08:20:26;;;;;;;3.70;2.20;;;9.40;95.90;;;;;;5055727;28;21133;-60
2021/05/24 08:22:52;;;;;;;1.93;1.83;;;9.50;96.70;;;;;;5057566;28;20463;-60
2021/05/24 08:25:18;;;;;;;4.80;2.10;;;9.50;97.40;;;;;;5052387;28;20440;-60
2021/05/24 08:27:44;;;;;;;1.80;1.70;;;9.60;97.10;;;;;;5054484;28;20524;-59
2021/05/24 08:30:11;;;;;;;1.80;1.70;;;9.60;96.30;;;;;;5036816;28;21006;-59
2021/05/24 08:32:37;;;;;;;2.73;2.10;;;9.70;95.70;;;;;;5043602;28;20455;-60
2021/05/24 08:35:04;;;;;;;1.87;1.77;;;9.70;96.30;;;;;;5055546;28;20433;-59
2021/05/24 08:37:30;;;;;;;2.30;2.10;;;9.70;96.30;;;;;;5054684;28;20311;-58
2021/05/24 08:39:55;;;;;;;2.93;2.23;;;9.70;96.30;;;;;;5035498;28;20976;-60
2021/05/24 08:42:23;;;;;;;4.23;2.00;;;9.70;97.00;;;;;;5033596;28;20203;-59
2021/05/24 08:44:49;;;;;;;2.40;2.20;;;9.70;97.00;;;;;;5050436;28;20273;-60
2021/05/24 08:47:15;;;;;;;2.40;2.00;;;9.80;97.20;;;;;;5052451;28;21142;-60
2021/05/24 08:49:41;;;;;;;2.30;2.10;;;9.80;96.80;;;;;;5050912;28;20598;-59
2021/05/24 08:52:07;;;;;;;2.53;2.27;;;9.90;96.50;;;;;;5050075;28;20961;-60
2021/05/24 08:54:36;;;;;;;2.40;2.13;;;9.90;96.70;;;;;;5053759;28;20203;-60
2021/05/24 08:57:03;;;;;;;3.50;2.13;;;10.00;96.80;;;;;;5048539;28;20257;-59
2021/05/24 08:59:29;;;;;;;2.17;2.00;;;10.00;97.00;;;;;;5057007;28;20467;-61
2021/05/24 09:01:54;;;;;;;2.60;2.40;;;10.10;96.20;;;;;;5051053;28;20422;-60
2021/05/24 09:04:20;;;;;;;5.60;2.27;;;10.10;96.10;;;;;;5052620;28;20175;-59
2021/05/24 09:06:48;;;;;;;2.87;2.40;;;10.20;96.60;;;;;;5027941;28;20182;-59
2021/05/24 09:09:18;;;;;;;2.47;2.27;;;10.30;96.90;;;;;;5047187;28;20285;-59
2021/05/24 09:11:46;;;;;;;3.27;2.00;;;10.30;96.90;;;;;;5033353;28;20528;-61
2021/05/24 09:14:13;;;;;;;7.03;3.80;;;10.40;96.70;;;;;;5049184;28;20811;-61
2021/05/24 09:16:38;;;;;;;1.93;1.80;;;10.50;96.60;;;;;;5051386;28;20583;-60
2021/05/24 09:19:19;;;;;;;1.83;1.73;;;10.50;95.40;;;;;;5034113;28;20466;-60
2021/05/24 09:22:05;;;;;;;4.20;1.90;;;10.50;94.50;;;;;;5053367;28;20807;-59
2021/05/24 09:24:39;;;;;;;7.63;2.23;;;10.50;94.00;;;;;;5049192;28;20448;-61
2021/05/24 09:27:22;;;;;;;2.23;2.03;;;10.60;94.00;;;;;;5047968;28;20564;-60
2021/05/24 09:29:51;;;;;;;2.10;1.90;;;10.60;94.00;;;;;;5052954;28;20556;-61
2021/05/24 09:32:19;;;;;;;2.87;2.17;;;10.60;93.90;;;;;;5054527;28;20428;-60
2021/05/24 09:34:47;;;;;;;2.83;2.40;;;10.70;94.20;;;;;;5054529;28;20436;-60
2021/05/24 09:37:14;;;;;;;2.70;2.10;;;10.80;93.60;;;;;;5062102;28;20494;-61
2021/05/24 09:39:40;;;;;;;3.33;2.10;;;10.80;93.10;;;;;;5060529;28;20455;-60
2021/05/24 09:42:12;;;;;;;4.23;2.30;;;10.80;92.80;;;;;;5061381;28;20520;-59
2021/05/24 09:44:53;;;;;;;7.00;2.40;;;10.90;92.30;;;;;;5052320;28;20516;-60
2021/05/24 09:47:33;;;;;;;4.93;2.63;;;10.90;92.40;;;;;;5068011;28;20436;-60
2021/05/24 09:50:12;;;;;;;4.20;2.43;;;11.00;92.40;;;;;;5054205;28;21019;-60
2021/05/24 09:52:40;;;;;;;3.97;2.70;;;11.00;92.70;;;;;;5051892;28;20968;-60
2021/05/24 09:55:14;;;;;;;4.53;3.03;;;11.00;91.90;;;;;;5062162;28;20948;-59
2021/05/24 09:58:01;;;;;;;5.73;3.57;;;11.10;91.70;;;;;;5066812;28;20455;-60
2021/05/24 10:00:41;;;;;;;2.83;2.53;;;11.20;91.60;;;;;;5068820;28;20428;-60
2021/05/24 10:03:10;;;;;;;3.03;2.40;;;11.30;91.50;;;;;;5064635;28;20460;-60
2021/05/24 10:05:41;;;;;;;3.13;2.70;;;11.40;92.10;;;;;;5058544;28;20469;-60
2021/05/24 10:08:07;;;;;;;4.97;3.77;;;11.60;92.30;;;;;;5047207;28;20426;-60
2021/05/24 10:10:33;;;;;;;4.90;3.53;;;11.70;92.00;;;;;;5058758;28;20755;-60
2021/05/24 10:13:00;;;;;;;8.60;4.50;;;11.80;90.40;;;;;;5068328;28;20574;-60
2021/05/24 10:15:26;;;;;;;3.30;2.60;;;11.90;90.70;;;;;;5048016;28;20441;-58
2021/05/24 10:17:59;;;;;;;2.43;2.23;;;12.10;90.90;;;;;;5070492;28;20413;-60
2021/05/24 10:20:25;;;;;;;2.93;2.70;;;12.20;91.20;;;;;;5062830;28;20452;-59
2021/05/24 10:22:51;;;;;;;3.57;2.23;;;12.40;91.20;;;;;;5047040;28;20899;-62
2021/05/24 10:25:17;;;;;;;3.43;2.30;;;12.40;90.50;;;;;;5070085;28;20427;-59
2021/05/24 10:27:43;;;;;;;2.30;2.10;;;12.40;90.60;;;;;;5066840;28;20455;-60
2021/05/24 10:30:11;;;;;;;2.50;2.30;;;12.40;90.70;;;;;;5067334;28;20470;-59
2021/05/24 10:32:37;;;;;;;2.77;2.17;;;12.40;90.70;;;;;;5050006;28;20493;-59
2021/05/24 10:35:35;;;;;;;5.60;3.23;;;12.40;91.00;;;;;;5051658;28;20429;-60
2021/05/24 10:38:21;;;;;;;6.30;2.70;;;12.40;90.90;;;;;;5050313;28;20406;-58
2021/05/24 10:40:47;;;;;;;3.00;2.40;;;12.30;91.70;;;;;;5061155;28;21471;-59
2021/05/24 10:43:16;;;;;;;7.53;2.60;;;12.40;92.10;;;;;;5057286;28;20539;-59
2021/05/24 10:45:45;;;;;;;4.90;2.50;;;12.40;91.90;;;;;;5067238;28;20413;-60
2021/05/24 10:48:18;;;;;;;3.17;2.20;;;12.50;91.80;;;;;;5063612;28;20917;-60
2021/05/24 10:51:07;;;;;;;2.67;2.40;;;12.60;91.80;;;;;;5054746;28;20928;-60
2021/05/24 10:53:41;;;;;;;4.77;2.00;;;12.70;91.70;;;;;;5049964;28;20900;-59
2021/05/24 10:56:18;;;;;;;2.30;2.10;;;12.80;90.60;;;;;;5061398;28;20446;-60
2021/05/24 10:58:43;;;;;;;2.23;2.03;;;12.90;90.60;;;;;;5071067;28;20964;-60
2021/05/24 11:01:09;;;;;;;2.47;1.90;;;13.10;90.40;;;;;;5072488;28;20421;-64
2021/05/24 11:03:35;;;;;;;3.67;2.10;;;13.30;87.70;;;;;;5072436;28;20194;-60
2021/05/24 11:06:16;;;;;;;2.60;1.63;;;13.40;86.20;;;;;;5069253;28;20802;-60
2021/05/24 11:09:00;;;;;;;6.20;2.07;;;13.50;85.90;;;;;;5071028;28;20606;-60
2021/05/24 11:11:27;;;;;;;1.97;1.73;;;13.70;82.90;;;;;;5084566;28;20472;-60
2021/05/24 11:13:57;;;;;;;4.67;1.97;;;13.70;82.60;;;;;;5063190;28;20532;-60
2021/05/24 11:16:23;;;;;;;3.60;2.03;;;13.70;83.00;;;;;;5068731;28;20936;-60
2021/05/24 11:18:49;;;;;;;2.53;2.33;;;13.70;83.20;;;;;;5076920;28;20444;-59
2021/05/24 11:21:18;;;;;;;2.30;2.10;;;13.80;82.80;;;;;;5072252;28;20665;-60
2021/05/24 11:26:21;;;;;;;2.27;2.07;;;13.80;82.70;;;;;;5062200;28;20486;-60
2021/05/24 11:29:02;;;;;;;2.43;1.97;;;13.80;80.50;;;;;;5066240;28;20998;-60
2021/05/24 11:31:35;;;;;;;3.00;2.10;;;13.80;80.40;;;;;;5065037;28;20929;-60
2021/05/24 11:34:03;;;;;;;3.50;2.10;;;13.80;80.40;;;;;;5055584;28;20507;-60
2021/05/24 11:36:28;;;;;;;2.30;1.80;;;13.70;80.60;;;;;;5068979;28;20515;-60
2021/05/24 11:39:15;;;;;;;1.80;1.70;;;13.70;78.30;;;;;;5069258;28;20555;-59
2021/05/24 11:41:54;;;;;;;2.70;2.10;;;13.70;77.90;;;;;;5066779;28;20256;-60
2021/05/24 11:44:22;;;;;;;2.30;2.00;;;13.70;78.30;;;;;;5071131;28;20432;-60
2021/05/24 11:46:54;;;;;;;2.70;2.07;;;13.70;77.10;;;;;;5066857;28;21100;-60
2021/05/24 11:49:31;;;;;;;1.70;1.60;;;13.70;75.70;;;;;;5062847;28;20727;-59
2021/05/24 11:51:57;;;;;;;2.83;2.57;;;13.70;77.80;;;;;;5078793;22;20546;-61
2021/05/24 11:54:26;;;;;;;2.67;2.43;;;13.70;77.30;;;;;;5048208;28;20437;-60
2021/05/24 11:56:57;;;;;;;3.30;2.40;;;13.70;77.10;;;;;;5049455;28;20178;-59
2021/05/24 11:59:24;;;;;;;3.70;2.43;;;13.70;74.10;;;;;;5051226;28;20449;-60
2021/05/24 12:01:51;;;;;;;4.00;2.33;;;13.60;75.40;;;;;;5048301;28;20812;-60
2021/05/24 12:04:30;;;;;;;3.67;2.40;;;13.50;78.20;;;;;;5045476;28;20551;-57
2021/05/24 12:07:08;;;;;;;3.07;2.00;;;13.50;79.00;;;;;;5046191;28;20824;-60
2021/05/24 12:09:49;;;;;;;4.30;1.90;;;13.40;79.40;;;;;;5042981;28;20436;-58
2021/05/24 12:12:23;;;;;;;2.83;2.23;;;13.40;80.50;;;;;;5045932;28;20457;-60
2021/05/24 12:14:53;;;;;;;1.70;1.60;;;13.30;81.20;;;;;;5036496;28;20467;-60
2021/05/24 12:17:24;;;;;;;2.70;1.90;;;13.30;79.20;;;;;;5035852;28;20460;-61
2021/05/24 12:19:53;;;;;;;2.30;2.10;;;13.30;80.50;;;;;;5023601;28;20514;-59
2021/05/24 12:22:20;;;;;;;1.80;1.70;;;13.30;82.20;;;;;;5014644;28;20458;-59
2021/05/24 12:24:47;;;;;;;2.40;2.20;;;13.30;82.40;;;;;;5037512;28;20491;-59
2021/05/24 12:27:19;;;;;;;2.70;2.40;;;13.30;83.20;;;;;;5035570;28;20845;-60
2021/05/24 12:29:51;;;;;;;2.33;2.13;;;13.30;83.80;;;;;;5037328;28;20437;-60
2021/05/24 12:32:47;;;;;;;4.97;2.30;;;13.40;84.00;;;;;;5038279;28;20576;-58
2021/05/24 12:35:35;;;;;;;2.60;2.40;;;13.40;84.10;;;;;;5033520;28;20922;-57
2021/05/24 12:38:17;;;;;;;2.40;2.20;;;13.50;84.80;;;;;;5037703;28;20436;-61
2021/05/24 12:40:43;;;;;;;3.30;2.43;;;13.50;80.80;;;;;;5021081;28;20528;-60
2021/05/24 12:43:09;;;;;;;3.23;2.53;;;13.50;77.10;;;;;;5033277;28;20461;-60
2021/05/24 12:45:35;;;;;;;2.27;2.10;;;13.50;78.80;;;;;;5031794;28;20437;-58
2021/05/24 12:48:17;;;;;;;3.67;2.67;;;13.50;78.10;;;;;;5037263;28;20211;-57
2021/05/24 12:50:46;;;;;;;3.90;2.43;;;13.60;78.20;;;;;;5034165;28;20182;-61
2021/05/24 12:53:14;;;;;;;4.80;3.10;;;13.60;79.80;;;;;;5034045;28;21289;-56
2021/05/24 12:55:41;;;;;;;2.67;2.47;;;13.70;80.30;;;;;;5033883;28;20430;-59
2021/05/24 12:58:11;;;;;;;2.40;2.10;;;13.70;76.10;;;;;;5033757;28;20827;-61
2021/05/24 13:00:52;;;;;;;2.10;1.60;;;13.80;73.80;;;;;;5030792;28;21266;-59